This is the latest recevied weather packets stored in our database for station/object OK1PMP-6. If no packets are shown the sender has not sent any weather packets the latest 10 day(s).
| Time | Temp. | Humidity | Pressure | Rain* | Wind** | Luminosity | Snow |
|---|---|---|---|---|---|---|---|
| 1777754881 | 8.89° C | 65% | 1022 hPa | 0 mm | - | 0 W/m² | - |
| 1777753973 | 9.44° C | 58% | 1021.8 hPa | 0 mm | - | 0 W/m² | - |
| 1777753072 | 10° C | 56% | 1022 hPa | 0 mm | - | 0 W/m² | - |
| 1777752171 | 10.56° C | 53% | 1021.8 hPa | 0 mm | - | 0 W/m² | - |
| 1777751270 | 11.11° C | 51% | 1022 hPa | 0 mm | - | 0 W/m² | - |
| 1777750370 | 11.67° C | 49% | 1022.2 hPa | 0 mm | - | 0 W/m² | - |
| 1777749467 | 12.78° C | 46% | 1021.9 hPa | 0 mm | - | 0 W/m² | - |
| 1777748568 | 13.89° C | 43% | 1021.8 hPa | 0 mm | - | 0 W/m² | - |
| 1777747666 | 15.56° C | 39% | 1021.8 hPa | 0 mm | - | 0 W/m² | - |
| 1777746764 | 16.11° C | 37% | 1022 hPa | 0 mm | - | 0 W/m² | - |
| 1777745865 | 17.78° C | 34% | 1021.8 hPa | 0 mm | - | 3 W/m² | - |
| 1777744964 | 19.44° C | 31% | 1021.8 hPa | 0 mm | - | 9 W/m² | - |
| 1777744070 | 21.67° C | 28% | 1022 hPa | 0 mm | - | 15 W/m² | - |
| 1777743162 | 23.33° C | 27% | 1021.9 hPa | 0 mm | - | 21 W/m² | - |
| 1777742262 | 23.33° C | 27% | 1022.2 hPa | 0 mm | - | 25 W/m² | - |
| 1777741358 | 24.44° C | 25% | 1022.1 hPa | 0 mm | - | 33 W/m² | - |
| 1777740453 | 24.44° C | 25% | 1022.4 hPa | 0 mm | - | 43 W/m² | - |
| 1777739552 | 25° C | 24% | 1022.4 hPa | 0 mm | - | 39 W/m² | - |
| 1777738646 | 25.56° C | 24% | 1022.5 hPa | 0 mm | - | 40 W/m² | - |
| 1777737745 | 26.11° C | 23% | 1022.9 hPa | 0 mm | - | 39 W/m² | - |
| 1777736843 | 26.67° C | 22% | 1023 hPa | 0 mm | - | 42 W/m² | - |
| 1777735938 | 26.67° C | 23% | 1023.2 hPa | 0 mm | - | 72 W/m² | - |
| 1777735036 | 26.67° C | 22% | 1023.2 hPa | 0 mm | - | 51 W/m² | - |
| 1777734114 | 27.22° C | 21% | 1023.5 hPa | 0 mm | - | 70 W/m² | - |
| 1777733209 | 27.22° C | 20% | 1023.8 hPa | 0 mm | - | 142 W/m² | - |
* Rain latest hour (hover to see other rain measurements)
** Current wind speed in m/s (hover to see current wind gust speed)